Portalegre, Portugal

3:09 PM WET on February 19, 2017 (GMT +0000)
Urbanizacao Lysias | | Change Station

Elev 1378 ft 39.28 °N, 7.42 °W | Updated 36 seconds ago

Partly Cloudy
Partly Cloudy
58.8 °F
Feels Like 58.8 °F
N
13.0
Wind Variable Wind from ESE
Gusts 22.1 mph

Today
High -- | Low -- °F
--% Chance of Precip.
Yesterday
High -- | Low -- °F
Precip. -- in
Pressure 30.15 in
Visibility 6.2 miles
Clouds Scattered Clouds 4900 ft
Dew Point 43 °F
Humidity 55%
Rainfall 0.00 in
Snow Depth Not available.
7:16 AM 6:11 PM
Last Quarter, 42% visible
METAR LEBZ 191500Z 08014KT 9999 SCT049 17/08 Q1021
Pressure 30.15 in
Visibility 6.2 miles
Clouds Scattered Clouds 4900 ft
Dew Point 43 °F
Humidity 55%
Rainfall 0.00 in
Snow Depth Not available.
7:16 AM 6:11 PM
Last Quarter, 42% visible
METAR LEBZ 191500Z 08014KT 9999 SCT049 17/08 Q1021

Get Your Daily Forecast Email!

Thanks for signing up!

Be on the lookout for a verification email in your inbox.

You'll start receiving the daily forecast at 8 AM.

×

10-Day Weather Forecast

×

Almanac

Astronomy

Feb. 19, 2017 Rise Set
Actual Time
Civil Twilight
Nautical Twilight
Astronomical Twilight
Moon
Length of Visible Light
Length of Day
Tomorrow will be .
, % of the Moon is Illuminated

Today's Extremes

Country Highs Country Lows

Community

WunderPhotos

Upload Photos

1,962,540 photos uploaded!

WunderBlog® & News

Nearby

Air Quality

  Air Quality AQ Index Pollutant
Not available.

Snow Depth

Station Depth Elevation

Earthquake Activity

City Distance Mag. Time & Date
Minimum magnitude displayed is 2.5.

Coastal Water Temperatures

Place Temperature

Stations

Nearby Weather Stations

Station Location Temp. Windchill Dew Point Humidity Wind Precip. Elev Updated Type